Time;durP1;ratioP1;P1;durP2;ratioP2;P2;SDS_P1;SDS_P2;PMS_P1;PMS_P2;Temp;Humidity;BMP_temperature;BMP_pressure;BME280_temperature;BME280_humidity;BME280_pressure;Samples;Min_cycle;Max_cycle;Signal;HPM_P1;HPM_P2
2020/12/04 00:00:44;;;;;;;115.6;78.9;;;;;;;-3.33;87.58496;97691.69;;;;
2020/12/04 00:10:41;;;;;;;118;71.9;;;;;;;-3.28;87.26758;97689.12;;;;
2020/12/04 00:20:39;;;;;;;71.6;49.7;;;;;;;-3.09;89.25781;97661.48;;;;
2020/12/04 00:30:36;;;;;;;104;59.7;;;;;;;-3.08;87.49707;97653.31;;;;
2020/12/04 00:40:33;;;;;;;68.7;49.3;;;;;;;-3.14;87.50391;97635.05;;;;
2020/12/04 00:50:31;;;;;;;59.8;39.3;;;;;;;-3.16;87.52344;97624.73;;;;
2020/12/04 01:00:28;;;;;;;45.4;40.1;;;;;;;-2.95;88.13281;97615.26;;;;
2020/12/04 01:10:26;;;;;;;52.6;36.5;;;;;;;-2.91;88.55469;97628.74;;;;
2020/12/04 01:20:23;;;;;;;54.2;42.7;;;;;;;-2.75;89.42676;97593.63;;;;
2020/12/04 01:30:20;;;;;;;82;46.8;;;;;;;-2.69;88.98242;97571.55;;;;
2020/12/04 01:40:18;;;;;;;66.9;44.1;;;;;;;-2.68;88.20996;97610.06;;;;
2020/12/04 01:50:15;;;;;;;57.5;37.7;;;;;;;-2.85;87.73926;97598.8;;;;
2020/12/04 02:00:16;;;;;;;48.1;34.4;;;;;;;-2.81;88.25879;97557.72;;;;
2020/12/04 02:10:12;;;;;;;42.9;32.2;;;;;;;-2.83;88.15723;97549.23;;;;
2020/12/04 02:20:10;;;;;;;47.5;34.3;;;;;;;-2.65;88.83691;97530.45;;;;
2020/12/04 02:30:08;;;;;;;47.7;31;;;;;;;-2.59;88.69922;97527.62;;;;
2020/12/04 02:40:02;;;;;;;49.5;29.9;;;;;;;-2.47;89.33203;97509.01;;;;
2020/12/04 02:50:00;;;;;;;57;40.2;;;;;;;-2.35;89.06445;97487.72;;;;
2020/12/04 02:59:57;;;;;;;40.8;27.5;;;;;;;-2.44;88.15137;97503.23;;;;
2020/12/04 03:09:54;;;;;;;44.6;31.8;;;;;;;-2.45;88.82422;97495.55;;;;
2020/12/04 03:19:52;;;;;;;46.6;34;;;;;;;-2.38;88.9043;97477.67;;;;
2020/12/04 03:29:49;;;;;;;33.4;25.3;;;;;;;-2.41;88.40625;97486.09;;;;
2020/12/04 03:39:47;;;;;;;42.7;28.2;;;;;;;-2.35;88.76953;97488.52;;;;
2020/12/04 03:49:44;;;;;;;36.2;24.8;;;;;;;-2.35;88.54102;97482.44;;;;
2020/12/04 03:59:42;;;;;;;43.5;31.8;;;;;;;-2.37;88.38477;97480.08;;;;
2020/12/04 04:09:39;;;;;;;40.6;24.8;;;;;;;-2.47;88.17676;97490.55;;;;
2020/12/04 04:19:36;;;;;;;27.3;23;;;;;;;-2.67;86.81641;97463.97;;;;
2020/12/04 04:29:34;;;;;;;34.6;24.7;;;;;;;-2.73;87.1748;97470.25;;;;
2020/12/04 04:39:31;;;;;;;41;27.4;;;;;;;-2.62;89.24609;97458.75;;;;
2020/12/04 04:49:29;;;;;;;50.3;28.3;;;;;;;-2.63;88.64648;97457.16;;;;
2020/12/04 04:59:26;;;;;;;39.5;28.6;;;;;;;-2.62;88.77734;97461.39;;;;
2020/12/04 05:09:25;;;;;;;45.9;31.9;;;;;;;-2.76;87.97559;97454.93;;;;
2020/12/04 05:19:21;;;;;;;46.9;34.4;;;;;;;-2.78;87.40332;97472.85;;;;
2020/12/04 05:29:19;;;;;;;48.8;31.1;;;;;;;-2.99;86.77246;97478.96;;;;
2020/12/04 05:39:16;;;;;;;62.7;35.6;;;;;;;-3.14;87.11328;97475.12;;;;
2020/12/04 05:49:13;;;;;;;48.1;35.1;;;;;;;-3.26;86.2168;97465.73;;;;
2020/12/04 05:59:11;;;;;;;52.7;32.7;;;;;;;-3.48;86.75977;97464.97;;;;
2020/12/04 06:09:09;;;;;;;50.2;33.6;;;;;;;-3.31;88.26367;97471.77;;;;
2020/12/04 06:19:27;;;;;;;49.1;36.7;;;;;;;-3.36;87.89551;97476.16;;;;
2020/12/04 06:29:03;;;;;;;115.8;76.2;;;;;;;-3.66;84.7207;97495.02;;;;
2020/12/04 06:39:00;;;;;;;90.8;58.4;;;;;;;-3.79;85.75098;97490.11;;;;
2020/12/04 06:48:58;;;;;;;85.5;59.5;;;;;;;-3.75;86.38867;97486.72;;;;
2020/12/04 06:58:55;;;;;;;95;64.8;;;;;;;-3.63;87.19824;97529.55;;;;
2020/12/04 07:08:52;;;;;;;98.4;67.8;;;;;;;-3.23;86.97363;97546.94;;;;
2020/12/04 07:18:52;;;;;;;84.8;58.3;;;;;;;-2.91;87.69336;97536.48;;;;
2020/12/04 07:28:47;;;;;;;69.2;49.2;;;;;;;-2.55;87.07129;97525.28;;;;
2020/12/04 07:38:45;;;;;;;82.9;54.4;;;;;;;-2.28;87.64844;97559.55;;;;
2020/12/04 07:48:42;;;;;;;136.9;95.9;;;;;;;-1.93;86.69336;97553.77;;;;
2020/12/04 07:58:40;;;;;;;129.3;97.3;;;;;;;-1.72;86.56445;97545.75;;;;
2020/12/04 08:08:37;;;;;;;93.3;58.7;;;;;;;-1.27;87.16895;97537.3;;;;
2020/12/04 08:18:35;;;;;;;72.8;52.7;;;;;;;-0.95;86.63086;97544.3;;;;
2020/12/04 08:28:33;;;;;;;73.8;56.4;;;;;;;-0.57;86.39258;97536.75;;;;
2020/12/04 08:38:30;;;;;;;76.1;53;;;;;;;-0.3;86.16016;97546.31;;;;
2020/12/04 08:48:29;;;;;;;85.8;65.1;;;;;;;-0.04;85.61035;97551.39;;;;
2020/12/04 08:58:26;;;;;;;150.9;114.5;;;;;;;0.31;84.8457;97563.03;;;;
2020/12/04 09:08:24;;;;;;;82.8;64.7;;;;;;;0.81;85.38477;97539.06;;;;
2020/12/04 09:18:22;;;;;;;96.2;73.2;;;;;;;0.83;84.21094;97544.11;;;;
2020/12/04 09:28:20;;;;;;;92.5;76.7;;;;;;;1.18;83.40918;97532.56;;;;
2020/12/04 09:38:17;;;;;;;95.3;77;;;;;;;1.64;81.76855;97512.64;;;;
2020/12/04 09:48:15;;;;;;;103.4;82.1;;;;;;;2.17;80.53027;97526.05;;;;
2020/12/04 09:58:14;;;;;;;79.2;64.1;;;;;;;2.58;81.81445;97516.62;;;;
2020/12/04 10:08:12;;;;;;;65.9;58.3;;;;;;;2.78;79.40625;97483.67;;;;
2020/12/04 10:18:12;;;;;;;62.2;50;;;;;;;3.19;78.36035;97460.03;;;;
2020/12/04 10:28:08;;;;;;;64.2;50.7;;;;;;;3.46;78.26758;97452.18;;;;
2020/12/04 10:38:10;;;;;;;44.6;34.4;;;;;;;4.29;75.50488;97443.34;;;;
2020/12/04 10:48:04;;;;;;;43.4;31.9;;;;;;;4.66;73.76563;97442.37;;;;
2020/12/04 10:58:03;;;;;;;53.9;40.4;;;;;;;5.2;73.43359;97446.88;;;;
2020/12/04 11:08:01;;;;;;;45.1;37.8;;;;;;;5.79;73.49023;97421.73;;;;
2020/12/04 11:18:01;;;;;;;47.4;38.5;;;;;;;6.24;72.67188;97414.46;;;;
2020/12/04 11:27:58;;;;;;;36.8;28.4;;;;;;;7;72.73242;97397.07;;;;
2020/12/04 11:37:57;;;;;;;31.6;26.2;;;;;;;7.64;70.55078;97368.52;;;;
2020/12/04 11:47:56;;;;;;;20.5;14.3;;;;;;;8.23;66.49414;97357.95;;;;
2020/12/04 11:57:53;;;;;;;15.3;9.2;;;;;;;8.51;64.00195;97332.27;;;;
2020/12/04 12:07:52;;;;;;;14.8;8;;;;;;;8.64;63.51465;97339.33;;;;
2020/12/04 12:17:51;;;;;;;11.7;7.9;;;;;;;8.99;62.10938;97337.18;;;;
2020/12/04 12:27:49;;;;;;;6.8;5.6;;;;;;;9.18;61.3125;97345.59;;;;
2020/12/04 12:37:48;;;;;;;11.6;7.6;;;;;;;9.33;61.36621;97328.88;;;;
2020/12/04 12:47:47;;;;;;;7.9;5.7;;;;;;;8.99;61.64746;97329.91;;;;
2020/12/04 12:57:46;;;;;;;10.9;6.9;;;;;;;9.16;60.86816;97373.92;;;;
2020/12/04 13:07:45;;;;;;;16.7;11.8;;;;;;;9.17;61.89648;97405.04;;;;
2020/12/04 13:17:43;;;;;;;25;19.6;;;;;;;9.25;60.7002;97402.3;;;;
2020/12/04 13:27:42;;;;;;;16.1;14.1;;;;;;;9.08;62.41602;97405.91;;;;
2020/12/04 13:37:41;;;;;;;14;8.9;;;;;;;8.79;62.23926;97405.91;;;;
2020/12/04 13:47:40;;;;;;;10.2;6.6;;;;;;;8.54;63.3877;97404.91;;;;
2020/12/04 13:57:39;;;;;;;11;8.4;;;;;;;8.28;64.47656;97398.88;;;;
2020/12/04 14:07:37;;;;;;;15.1;10.9;;;;;;;7.89;65.90332;97413.3;;;;
2020/12/04 14:17:36;;;;;;;20.4;17.6;;;;;;;7.57;66.90137;97403.86;;;;
2020/12/04 14:27:35;;;;;;;12.5;9.5;;;;;;;7.22;68.38379;97418.35;;;;
2020/12/04 14:37:33;;;;;;;11.9;8.8;;;;;;;6.98;68.66016;97424.16;;;;
2020/12/04 14:47:32;;;;;;;25.9;16.8;;;;;;;6.69;69.6123;97405.19;;;;
2020/12/04 14:57:30;;;;;;;23.5;18;;;;;;;6.47;70.36133;97419.44;;;;
2020/12/04 15:07:29;;;;;;;22.5;13.9;;;;;;;6.41;70.49512;97417.22;;;;
2020/12/04 15:17:27;;;;;;;20.4;13.7;;;;;;;6.39;70.80566;97436.23;;;;
2020/12/04 15:27:26;;;;;;;75.6;53.6;;;;;;;6.39;70.45898;97475.59;;;;
2020/12/04 15:37:24;;;;;;;14.9;12.3;;;;;;;6.27;70.94336;97473.5;;;;
2020/12/04 15:47:23;;;;;;;21.2;16.8;;;;;;;6.19;71.44336;97486.81;;;;
2020/12/04 15:57:21;;;;;;;54;38.5;;;;;;;6.22;71.2373;97502.25;;;;
2020/12/04 16:07:19;;;;;;;19;15.2;;;;;;;6.1;71.67676;97510.84;;;;
2020/12/04 16:17:18;;;;;;;18.8;13.2;;;;;;;5.9;72.24707;97520.12;;;;
2020/12/04 16:27:17;;;;;;;30.2;22;;;;;;;5.67;72.93359;97526.51;;;;
2020/12/04 16:37:17;;;;;;;27;23.2;;;;;;;5.66;73.27734;97532.17;;;;
2020/12/04 16:47:13;;;;;;;20.5;17.6;;;;;;;5.78;73.14063;97537.77;;;;
2020/12/04 16:57:11;;;;;;;26.1;18.3;;;;;;;5.67;73.07813;97573.83;;;;
2020/12/04 17:07:14;;;;;;;29.1;23.7;;;;;;;5.39;73.7793;97575.74;;;;
2020/12/04 17:17:14;;;;;;;20;16.4;;;;;;;4.97;73.97656;97577.63;;;;
2020/12/04 17:27:16;;;;;;;53.8;39;;;;;;;4.54;75.35938;97594.95;;;;
2020/12/04 17:37:05;;;;;;;37.9;27.7;;;;;;;4.23;75.9834;97594.66;;;;
2020/12/04 17:47:03;;;;;;;38.8;26.5;;;;;;;3.75;77.34375;97604.66;;;;
2020/12/04 17:57:02;;;;;;;28.1;19.8;;;;;;;3.5;78.28516;97599.69;;;;
2020/12/04 18:07:05;;;;;;;30.3;20.3;;;;;;;3.74;78.7959;97600.44;;;;
2020/12/04 18:16:57;;;;;;;28.5;19.5;;;;;;;3.66;78.57129;97611.72;;;;
2020/12/04 18:26:55;;;;;;;29;24.7;;;;;;;3.23;79.46582;97629.54;;;;
2020/12/04 18:36:54;;;;;;;31.7;25.5;;;;;;;3.04;80.27344;97626.03;;;;
2020/12/04 18:46:52;;;;;;;48.9;36.3;;;;;;;3.4;80.57422;97624.55;;;;
2020/12/04 18:56:50;;;;;;;29.6;20.5;;;;;;;3.96;78.95801;97621.96;;;;
2020/12/04 19:06:48;;;;;;;33.5;21.4;;;;;;;4.04;78.30566;97604.53;;;;
2020/12/04 19:16:46;;;;;;;25.3;19.2;;;;;;;3.93;78.44238;97609.22;;;;
2020/12/04 19:26:44;;;;;;;31.5;22.9;;;;;;;3.81;78.81934;97608.06;;;;
2020/12/04 19:36:42;;;;;;;33.5;24.4;;;;;;;3.85;78.84961;97614.41;;;;
2020/12/04 19:46:41;;;;;;;27.8;20.5;;;;;;;4;78.32031;97622.18;;;;
2020/12/04 19:56:39;;;;;;;29;19.6;;;;;;;4;78.22168;97641.64;;;;
2020/12/04 20:06:37;;;;;;;29.4;23.7;;;;;;;4.31;77.36523;97657.2;;;;
2020/12/04 20:16:35;;;;;;;31.4;19.7;;;;;;;4.5;76.66504;97660.66;;;;
2020/12/04 20:26:33;;;;;;;26.4;23.7;;;;;;;4.53;76.6377;97681.41;;;;
2020/12/04 20:36:31;;;;;;;22.5;16.7;;;;;;;4.64;76.3252;97677.51;;;;
2020/12/04 20:46:29;;;;;;;24.3;19;;;;;;;4.46;76.3584;97676.45;;;;
2020/12/04 20:56:28;;;;;;;27;17.9;;;;;;;4.2;77.12402;97691.21;;;;
2020/12/04 21:06:26;;;;;;;25.7;21;;;;;;;4.55;76.50879;97682.7;;;;
2020/12/04 21:16:24;;;;;;;25;15.6;;;;;;;4.51;76.71289;97686.26;;;;
2020/12/04 21:26:22;;;;;;;23.1;15.9;;;;;;;4.45;77.25781;97695.4;;;;
2020/12/04 21:36:20;;;;;;;29;18.2;;;;;;;4.65;76.6582;97697.75;;;;
2020/12/04 21:46:21;;;;;;;26;19.2;;;;;;;4.78;76.31348;97698.91;;;;
2020/12/04 21:56:17;;;;;;;29.3;19.9;;;;;;;4.96;75.88965;97698.08;;;;
2020/12/04 22:06:15;;;;;;;22;16.1;;;;;;;5.21;75.17383;97694.16;;;;
2020/12/04 22:16:13;;;;;;;22.9;15.6;;;;;;;5.55;74.55469;97694.63;;;;
2020/12/04 22:26:19;;;;;;;18.5;13.2;;;;;;;5.59;74.57324;97714.3;;;;
2020/12/04 22:36:15;;;;;;;16;12.7;;;;;;;5.81;73.87305;97725.11;;;;
2020/12/04 22:46:10;;;;;;;17.4;13.9;;;;;;;5.61;74.27539;97722.83;;;;
2020/12/04 22:56:10;;;;;;;16.1;12.7;;;;;;;5.82;73.91992;97699.17;;;;
2020/12/04 23:06:05;;;;;;;19;14.7;;;;;;;5.84;73.67871;97697.77;;;;
2020/12/04 23:16:03;;;;;;;22.1;14;;;;;;;5.87;73.54883;97709.77;;;;
2020/12/04 23:26:02;;;;;;;18.4;14.5;;;;;;;5.71;73.88965;97714.61;;;;
2020/12/04 23:36:00;;;;;;;14.3;11.6;;;;;;;5.82;73.78711;97724.03;;;;
2020/12/04 23:45:59;;;;;;;21.6;14.7;;;;;;;5.83;73.74219;97722.16;;;;
2020/12/04 23:55:57;;;;;;;16.1;12;;;;;;;5.76;74.02148;97717.17;;;;
